Time;durP1;ratioP1;P1;durP2;ratioP2;P2;SDS_P1;SDS_P2;PMS_P1;PMS_P2;Temp;Humidity;BMP_temperature;BMP_pressure;BME280_temperature;BME280_humidity;BME280_pressure;Samples;Min_cycle;Max_cycle;Signal;HPM_P1;HPM_P2
2021/06/01 00:01:33;;;;;;;10.88;5.32;;;359.00;2329.60;;;;;;5017329;28;20544;-81
2021/06/01 00:03:59;;;;;;;8.45;5.32;;;359.00;2329.60;;;;;;5016918;28;20026;-82
2021/06/01 00:06:26;;;;;;;6.53;4.78;;;359.00;2329.60;;;;;;5034557;28;20081;-80
2021/06/01 00:08:52;;;;;;;9.65;5.40;;;359.20;2329.60;;;;;;5034307;28;20030;-79
2021/06/01 00:11:18;;;;;;;11.70;5.20;;;359.00;2329.60;;;;;;5016627;28;20585;-83
2021/06/01 00:13:44;;;;;;;11.40;6.03;;;359.00;2329.60;;;;;;5016363;28;20506;-82
2021/06/01 00:16:11;;;;;;;9.10;4.88;;;358.90;2329.60;;;;;;5034524;28;20033;-82
2021/06/01 00:18:38;;;;;;;10.35;5.43;;;358.90;2329.60;;;;;;5034076;28;20502;-83
2021/06/01 00:21:05;;;;;;;9.02;4.72;;;359.00;2329.60;;;;;;5042038;28;20270;-84
2021/06/01 00:23:34;;;;;;;8.63;4.90;;;359.00;2329.60;;;;;;5016515;28;20487;-84
2021/06/01 00:26:00;;;;;;;7.45;4.80;;;358.90;2329.60;;;;;;5034200;28;20017;-84
2021/06/01 00:28:26;;;;;;;8.10;4.45;;;358.90;2329.60;;;;;;5016290;28;20086;-81
2021/06/01 00:30:51;;;;;;;7.30;4.55;;;358.90;2329.60;;;;;;5015566;28;20053;-83
2021/06/01 00:33:17;;;;;;;6.57;4.90;;;358.80;2329.60;;;;;;5033867;28;20037;-82
2021/06/01 00:35:43;;;;;;;6.47;4.57;;;358.80;2329.60;;;;;;5015498;28;20029;-83
2021/06/01 00:38:08;;;;;;;10.60;5.15;;;358.80;2329.60;;;;;;5016918;28;20022;-83
2021/06/01 00:40:34;;;;;;;7.10;4.50;;;358.50;2329.60;;;;;;5034167;28;20053;-81
2021/06/01 00:43:02;;;;;;;10.23;4.55;;;358.60;2329.60;;;;;;5032248;28;20475;-84
2021/06/01 00:45:28;;;;;;;7.93;3.95;;;358.70;2329.60;;;;;;5016673;28;20112;-84
2021/06/01 00:47:55;;;;;;;5.63;3.80;;;358.50;2329.60;;;;;;5016417;28;20486;-81
2021/06/01 00:50:24;;;;;;;8.75;3.53;;;358.80;2329.60;;;;;;5016668;28;20055;-82
2021/06/01 00:52:51;;;;;;;8.50;4.05;;;358.70;2329.60;;;;;;5016077;28;20017;-84
2021/06/01 00:55:17;;;;;;;7.65;4.63;;;358.70;2329.60;;;;;;5016336;28;20532;-82
2021/06/01 00:57:43;;;;;;;8.32;4.55;;;358.70;2329.60;;;;;;5016198;28;20025;-83
2021/06/01 01:00:23;;;;;;;8.80;4.05;;;333.70;2329.60;;;;;;5016003;28;20029;-81
2021/06/01 01:02:48;;;;;;;6.80;4.78;;;358.40;2329.60;;;;;;5013498;28;20129;-83
2021/06/01 01:05:16;;;;;;;7.75;4.72;;;358.40;2329.60;;;;;;5016001;28;20116;-82
2021/06/01 01:07:57;;;;;;;8.60;4.22;;;358.40;2329.60;;;;;;5015256;28;20055;-82
2021/06/01 01:10:26;;;;;;;9.65;5.30;;;333.70;2329.60;;;;;;5015710;28;20033;-82
2021/06/01 01:12:58;;;;;;;9.02;4.90;;;333.70;2329.60;;;;;;5016046;28;20083;-82
2021/06/01 01:15:26;;;;;;;6.85;5.10;;;333.50;2329.60;;;;;;5013025;28;20116;-83
2021/06/01 01:17:54;;;;;;;17.05;6.38;;;333.50;2329.60;;;;;;5015834;28;20035;-82
2021/06/01 01:20:29;;;;;;;8.27;6.05;;;333.50;2329.60;;;;;;5016159;28;20032;-82
2021/06/01 01:22:56;;;;;;;9.52;5.97;;;333.40;2329.60;;;;;;5015740;28;20037;-82
2021/06/01 01:25:34;;;;;;;9.10;5.72;;;333.30;2329.60;;;;;;5015861;28;20027;-83
2021/06/01 01:28:06;;;;;;;12.35;6.47;;;333.40;2329.60;;;;;;5015625;28;20045;-81
2021/06/01 01:30:57;;;;;;;7.75;4.80;;;333.30;2329.60;;;;;;5015372;28;20022;-82
2021/06/01 01:33:27;;;;;;;8.85;5.07;;;333.20;2329.60;;;;;;5009516;28;20137;-83
2021/06/01 01:35:57;;;;;;;7.97;4.90;;;333.20;2329.60;;;;;;5015413;28;20026;-82
2021/06/01 01:38:25;;;;;;;7.55;4.25;;;333.20;2329.60;;;;;;5015113;28;20025;-83
2021/06/01 01:40:53;;;;;;;8.82;4.28;;;333.20;2329.60;;;;;;5013824;28;20025;-83
2021/06/01 01:43:25;;;;;;;5.93;3.85;;;333.40;2329.60;;;;;;5014167;28;20084;-84
2021/06/01 01:46:00;;;;;;;6.05;3.80;;;333.20;2329.60;;;;;;5013429;28;20017;-84
2021/06/01 01:51:14;;;;;;;9.13;3.60;;;333.20;2329.60;;;;;;5031540;28;20063;-82
2021/06/01 01:54:01;;;;;;;6.80;4.05;;;333.10;2329.60;;;;;;5015547;28;20026;-83
2021/06/01 01:56:35;;;;;;;5.70;3.85;;;333.10;2329.60;;;;;;5010375;28;20026;-83
2021/06/01 01:59:01;;;;;;;7.90;4.78;;;333.10;2329.60;;;;;;5014556;28;20030;-83
2021/06/01 02:01:31;;;;;;;7.55;3.85;;;333.00;2329.60;;;;;;5014075;28;20060;-83
2021/06/01 02:03:57;;;;;;;8.82;3.72;;;333.10;2329.60;;;;;;5014775;28;20063;-83
2021/06/01 02:06:23;;;;;;;7.22;4.28;;;333.20;2329.60;;;;;;5014944;28;20056;-83
2021/06/01 02:08:48;;;;;;;13.32;6.35;;;333.20;2329.60;;;;;;5039300;28;20065;-83
2021/06/01 02:11:14;;;;;;;13.13;7.38;;;333.10;2329.60;;;;;;5014064;28;20084;-84
2021/06/01 02:13:43;;;;;;;14.77;8.18;;;333.20;2329.60;;;;;;5015099;28;20026;-81
2021/06/01 02:16:08;;;;;;;12.05;7.68;;;333.30;2329.60;;;;;;5015063;28;20022;-81
2021/06/01 02:18:34;;;;;;;8.77;6.65;;;333.30;2329.60;;;;;;5014809;28;20071;-83
2021/06/01 02:21:04;;;;;;;7.65;5.72;;;333.30;2329.60;;;;;;5014446;28;20022;-83
2021/06/01 02:23:48;;;;;;;11.73;5.85;;;333.20;2329.60;;;;;;5012729;28;20038;-82
2021/06/01 02:26:29;;;;;;;8.50;5.25;;;333.30;2329.60;;;;;;5012477;28;20033;-81
2021/06/01 02:29:02;;;;;;;11.88;5.72;;;333.30;2329.60;;;;;;5012868;28;20089;-80
2021/06/01 02:31:33;;;;;;;10.07;6.10;;;333.40;2329.60;;;;;;5029924;28;20017;-82
2021/06/01 02:34:01;;;;;;;9.98;6.57;;;333.20;2329.60;;;;;;5014462;28;20025;-80
2021/06/01 02:36:29;;;;;;;10.05;6.60;;;333.20;2329.60;;;;;;5014572;28;20375;-80
2021/06/01 02:38:59;;;;;;;12.07;7.03;;;333.40;2329.60;;;;;;5014265;28;20026;-84
2021/06/01 02:41:24;;;;;;;8.90;6.35;;;333.30;2329.60;;;;;;5011729;28;20029;-82
2021/06/01 02:43:51;;;;;;;15.10;5.85;;;333.20;2329.60;;;;;;5032219;28;20026;-83
2021/06/01 02:46:18;;;;;;;7.13;5.38;;;333.10;2329.60;;;;;;5014589;28;20171;-83
2021/06/01 02:48:45;;;;;;;11.65;6.15;;;333.10;2329.60;;;;;;5014571;28;20026;-83
2021/06/01 02:51:15;;;;;;;10.35;4.75;;;333.10;2329.60;;;;;;5014291;28;20463;-81
2021/06/01 02:53:50;;;;;;;6.82;5.10;;;333.00;2329.60;;;;;;5014774;28;20024;-79
2021/06/01 02:56:17;;;;;;;7.60;4.85;;;333.00;2329.60;;;;;;5012807;28;20524;-80
2021/06/01 02:58:44;;;;;;;9.90;5.10;;;333.00;2329.60;;;;;;5014149;28;20089;-83
2021/06/01 03:01:14;;;;;;;10.07;5.60;;;333.00;2329.60;;;;;;5014531;28;20018;-80
2021/06/01 03:03:58;;;;;;;8.52;6.30;;;333.10;2329.60;;;;;;5013980;28;20041;-81
2021/06/01 03:06:25;;;;;;;11.35;6.18;;;333.00;2329.60;;;;;;5013674;28;20520;-81
2021/06/01 03:08:52;;;;;;;9.25;5.43;;;332.90;2329.60;;;;;;5039006;28;20021;-79
2021/06/01 03:11:20;;;;;;;13.35;6.10;;;332.90;2329.60;;;;;;5013956;28;20096;-84
2021/06/01 03:13:51;;;;;;;9.38;5.53;;;332.80;2329.60;;;;;;5014271;28;20032;-82
2021/06/01 03:16:18;;;;;;;8.63;5.43;;;332.80;2329.60;;;;;;5013725;28;20041;-84
2021/06/01 03:18:44;;;;;;;9.52;4.90;;;332.80;2329.60;;;;;;5031661;28;20096;-82
2021/06/01 03:21:11;;;;;;;7.35;5.13;;;308.10;2304.00;;;;;;5011463;28;20018;-84
2021/06/01 03:23:37;;;;;;;11.68;5.90;;;332.80;2329.60;;;;;;5014306;28;20125;-82
2021/06/01 03:26:04;;;;;;;13.82;8.25;;;333.00;2329.60;;;;;;5013909;28;20089;-84
2021/06/01 03:28:31;;;;;;;14.75;8.60;;;332.90;2329.60;;;;;;5028769;28;20049;-80
2021/06/01 03:30:57;;;;;;;12.77;7.75;;;332.90;2329.60;;;;;;5014137;28;20029;-83
2021/06/01 03:33:23;;;;;;;13.30;7.20;;;332.90;2329.60;;;;;;5035203;28;20021;-84
2021/06/01 03:35:49;;;;;;;8.20;5.75;;;332.90;2329.60;;;;;;5017933;28;20025;-83
2021/06/01 03:38:14;;;;;;;10.85;5.85;;;332.90;2329.60;;;;;;5017600;28;20044;-80
2021/06/01 03:40:41;;;;;;;7.13;5.30;;;332.90;2329.60;;;;;;5016844;28;20399;-81
2021/06/01 03:43:07;;;;;;;11.90;6.10;;;332.80;2329.60;;;;;;5017534;28;20438;-82
2021/06/01 03:45:33;;;;;;;8.77;6.18;;;308.10;2304.00;;;;;;5017844;28;20019;-79
2021/06/01 03:47:59;;;;;;;9.88;6.70;;;332.80;2329.60;;;;;;5017269;28;20033;-84
2021/06/01 03:50:25;;;;;;;10.75;6.78;;;332.80;2329.60;;;;;;5017763;28;20079;-82
2021/06/01 03:52:51;;;;;;;7.30;5.47;;;332.80;2329.60;;;;;;5039544;28;20086;-83
2021/06/01 03:55:17;;;;;;;12.90;5.20;;;332.80;2329.60;;;;;;5017055;28;20590;-84
2021/06/01 03:57:48;;;;;;;9.80;5.05;;;332.90;2329.60;;;;;;5017256;28;20467;-85
2021/06/01 04:00:18;;;;;;;8.82;5.93;;;332.80;2329.60;;;;;;5014757;28;20041;-82
2021/06/01 04:02:44;;;;;;;8.35;5.03;;;308.10;2304.00;;;;;;5016894;28;20511;-80
2021/06/01 04:05:11;;;;;;;7.82;5.15;;;332.80;2329.60;;;;;;5016852;28;20063;-82
2021/06/01 04:07:37;;;;;;;10.40;5.03;;;332.90;2329.60;;;;;;5042073;28;20079;-84
2021/06/01 04:10:04;;;;;;;9.38;5.32;;;332.90;2329.60;;;;;;5016038;28;20072;-83
2021/06/01 04:12:30;;;;;;;9.38;4.97;;;333.00;2329.60;;;;;;5017154;28;20030;-85
2021/06/01 04:14:56;;;;;;;8.10;4.85;;;333.00;2329.60;;;;;;5016312;28;20120;-80
2021/06/01 04:17:22;;;;;;;7.18;4.68;;;333.20;2329.60;;;;;;5034391;28;20155;-83
2021/06/01 04:19:47;;;;;;;8.15;5.00;;;333.20;2329.60;;;;;;5034365;28;20028;-85
2021/06/01 04:22:13;;;;;;;11.55;5.18;;;333.20;2329.60;;;;;;5016675;28;20134;-83
2021/06/01 04:24:39;;;;;;;6.72;4.93;;;333.20;2329.60;;;;;;5016867;28;20459;-83
2021/06/01 04:27:06;;;;;;;7.15;5.03;;;333.20;2329.60;;;;;;5016771;28;20079;-85
2021/06/01 04:29:31;;;;;;;8.48;4.93;;;333.20;2329.60;;;;;;5016528;28;20153;-86
2021/06/01 04:31:57;;;;;;;11.25;5.45;;;333.20;2329.60;;;;;;5016719;28;20529;-81
2021/06/01 04:34:23;;;;;;;10.82;6.38;;;333.40;2329.60;;;;;;5016749;28;20113;-84
2021/06/01 04:36:48;;;;;;;11.50;7.18;;;333.40;2329.60;;;;;;5016127;28;20061;-84
2021/06/01 04:39:14;;;;;;;11.60;6.70;;;333.40;2329.60;;;;;;5034237;28;20025;-84
2021/06/01 04:41:40;;;;;;;6.63;4.78;;;333.60;2329.60;;;;;;5016181;28;20061;-82
2021/06/01 04:44:06;;;;;;;8.93;4.57;;;333.20;2329.60;;;;;;5016445;28;20120;-82
2021/06/01 04:46:33;;;;;;;7.88;4.55;;;333.20;2329.60;;;;;;5038575;28;20025;-84
2021/06/01 04:48:59;;;;;;;9.65;5.00;;;333.20;2329.60;;;;;;5016033;28;20144;-83
2021/06/01 04:51:25;;;;;;;14.43;6.05;;;333.30;2329.60;;;;;;5016319;28;20029;-84
2021/06/01 04:53:54;;;;;;;7.47;4.85;;;333.40;2329.60;;;;;;5015765;28;20055;-83
2021/06/01 04:56:21;;;;;;;11.65;5.30;;;333.40;2329.60;;;;;;5016225;28;20061;-84
2021/06/01 04:58:47;;;;;;;12.23;5.55;;;333.30;2329.60;;;;;;5015952;28;20124;-83
2021/06/01 05:01:14;;;;;;;11.30;4.85;;;333.30;2329.60;;;;;;5013099;28;20099;-80
2021/06/01 05:03:40;;;;;;;7.60;4.97;;;333.30;2329.60;;;;;;5015836;28;20487;-82
2021/06/01 05:06:07;;;;;;;8.70;4.93;;;333.20;2329.60;;;;;;5016010;28;20079;-83
2021/06/01 05:08:33;;;;;;;10.07;4.90;;;333.20;2329.60;;;;;;5015603;28;20017;-80
2021/06/01 05:10:59;;;;;;;10.27;5.38;;;333.20;2329.60;;;;;;5015684;28;20079;-81
2021/06/01 05:13:25;;;;;;;6.95;4.95;;;333.10;2329.60;;;;;;5016183;28;20115;-79
2021/06/01 05:15:52;;;;;;;8.98;4.85;;;333.20;2329.60;;;;;;5015606;28;20028;-83
2021/06/01 05:18:18;;;;;;;9.50;5.82;;;333.20;2329.60;;;;;;5033320;28;20498;-83
2021/06/01 05:20:46;;;;;;;9.63;5.35;;;333.20;2329.60;;;;;;5015410;28;20546;-85
2021/06/01 05:23:12;;;;;;;7.10;5.15;;;332.90;2329.60;;;;;;5015379;28;20368;-81
2021/06/01 05:25:38;;;;;;;8.23;4.68;;;333.10;2329.60;;;;;;5033028;28;20017;-81
2021/06/01 05:28:04;;;;;;;11.43;5.45;;;333.20;2329.60;;;;;;5015502;28;20095;-80
2021/06/01 05:30:36;;;;;;;8.05;5.95;;;333.20;2329.60;;;;;;5014890;28;20132;-80
2021/06/01 05:35:29;;;;;;;9.98;5.28;;;333.20;2329.60;;;;;;5033268;28;20475;-81
2021/06/01 05:37:55;;;;;;;11.18;6.05;;;333.20;2329.60;;;;;;5015614;28;20029;-80
2021/06/01 05:40:21;;;;;;;16.42;5.68;;;333.20;2329.60;;;;;;5015064;28;20033;-80
2021/06/01 05:42:47;;;;;;;9.13;5.15;;;333.30;2329.60;;;;;;5014912;28;20108;-82
2021/06/01 05:45:12;;;;;;;9.55;6.13;;;333.40;2329.60;;;;;;5040315;28;20122;-82
2021/06/01 05:47:39;;;;;;;11.38;6.03;;;333.40;2329.60;;;;;;5015906;28;20029;-80
2021/06/01 05:50:05;;;;;;;9.70;6.38;;;333.40;2329.60;;;;;;5033280;28;20191;-79
2021/06/01 05:52:35;;;;;;;11.65;7.07;;;333.50;2329.60;;;;;;5048304;28;20033;-83
2021/06/01 05:55:03;;;;;;;12.18;6.18;;;333.40;2329.60;;;;;;5014942;28;20065;-83
2021/06/01 05:57:29;;;;;;;9.25;6.50;;;333.40;2329.60;;;;;;5015386;28;20040;-80
2021/06/01 05:59:54;;;;;;;12.75;6.68;;;333.40;2329.60;;;;;;5015161;28;20025;-84
2021/06/01 06:02:20;;;;;;;15.15;8.10;;;333.40;2329.60;;;;;;5015402;28;20049;-80
2021/06/01 06:04:46;;;;;;;13.52;5.97;;;333.60;2329.60;;;;;;5032490;28;20033;-82
2021/06/01 06:07:12;;;;;;;14.60;6.38;;;333.50;2329.60;;;;;;5015054;28;20049;-79
2021/06/01 06:09:37;;;;;;;13.95;6.30;;;333.70;2329.60;;;;;;5032854;28;20021;-80
2021/06/01 06:12:03;;;;;;;7.20;5.07;;;333.70;2329.60;;;;;;5032901;28;20378;-80
2021/06/01 06:14:29;;;;;;;9.50;5.78;;;333.70;2329.60;;;;;;5014301;28;20382;-79
2021/06/01 06:16:59;;;;;;;14.52;5.35;;;333.70;2329.60;;;;;;5014522;28;20044;-80
2021/06/01 06:19:25;;;;;;;10.52;5.50;;;358.50;2329.60;;;;;;5031945;28;20498;-83
2021/06/01 06:21:51;;;;;;;11.32;6.18;;;358.60;2329.60;;;;;;5014387;28;20134;-80
2021/06/01 06:24:16;;;;;;;10.63;5.65;;;358.70;2329.60;;;;;;5015027;28;20021;-80
2021/06/01 06:26:42;;;;;;;11.73;6.53;;;358.80;2329.60;;;;;;5032333;28;20112;-80
2021/06/01 06:29:08;;;;;;;10.00;5.72;;;358.90;2329.60;;;;;;5014874;28;20056;-80
2021/06/01 06:31:34;;;;;;;14.90;6.15;;;359.00;2329.60;;;;;;5029767;28;20519;-80
2021/06/01 06:34:00;;;;;;;9.32;5.60;;;359.20;2329.60;;;;;;4995213;28;20024;-79
2021/06/01 06:36:26;;;;;;;9.57;5.78;;;359.30;2329.60;;;;;;4995805;28;20061;-84
2021/06/01 06:38:52;;;;;;;6.55;4.63;;;359.30;2329.60;;;;;;5010002;28;20436;-79
2021/06/01 06:41:18;;;;;;;9.00;5.47;;;384.00;2329.60;;;;;;5014365;28;20038;-81
2021/06/01 06:43:49;;;;;;;8.15;5.50;;;384.00;2329.60;;;;;;5015502;28;20037;-79
2021/06/01 06:46:24;;;;;;;7.30;5.38;;;384.10;2329.60;;;;;;5014169;28;20084;-86
2021/06/01 06:48:50;;;;;;;8.93;4.75;;;384.20;2329.60;;;;;;5032030;28;20028;-80
2021/06/01 06:51:16;;;;;;;7.55;5.20;;;384.40;2329.60;;;;;;5015116;28;20079;-79
2021/06/01 06:53:56;;;;;;;11.43;6.18;;;384.30;2304.00;;;;;;5013740;28;20426;-79
2021/06/01 06:56:24;;;;;;;11.60;5.15;;;384.30;2329.60;;;;;;5014758;28;20026;-84
2021/06/01 06:58:52;;;;;;;8.48;5.30;;;384.50;2304.00;;;;;;5031964;28;20119;-84
2021/06/01 07:01:18;;;;;;;10.88;5.53;;;384.70;2252.80;;;;;;5012782;28;20041;-84
2021/06/01 07:03:44;;;;;;;11.13;5.15;;;384.70;2252.80;;;;;;5011607;28;20044;-79
2021/06/01 07:06:10;;;;;;;10.88;5.32;;;384.90;2252.80;;;;;;5014662;28;20026;-80
2021/06/01 07:08:36;;;;;;;10.35;5.53;;;409.60;2278.40;;;;;;5018025;28;20108;-81
2021/06/01 07:11:02;;;;;;;11.75;4.40;;;409.60;2278.40;;;;;;5017935;28;20048;-85
2021/06/01 07:13:39;;;;;;;9.75;5.32;;;409.70;2227.20;;;;;;5018306;28;20063;-77
2021/06/01 07:16:05;;;;;;;9.38;5.40;;;409.90;2278.40;;;;;;5018073;28;20521;-84
2021/06/01 07:18:34;;;;;;;11.27;5.75;;;410.00;2227.20;;;;;;5018085;28;20025;-79
2021/06/01 07:21:01;;;;;;;11.63;5.30;;;410.20;2201.60;;;;;;5018338;28;20025;-80
2021/06/01 07:23:27;;;;;;;6.85;5.38;;;410.30;2201.60;;;;;;5017866;28;20037;-79
2021/06/01 07:25:53;;;;;;;11.25;5.93;;;410.30;2201.60;;;;;;5035669;28;20029;-79
2021/06/01 07:28:19;;;;;;;12.77;6.20;;;410.30;2176.00;;;;;;5016282;28;20041;-79
2021/06/01 07:30:45;;;;;;;13.00;5.13;;;410.40;2227.20;;;;;;5017965;28;20384;-84
2021/06/01 07:33:10;;;;;;;8.77;5.38;;;410.50;2176.00;;;;;;5017968;28;20056;-88
2021/06/01 07:35:36;;;;;;;11.10;5.75;;;435.30;2124.80;;;;;;5034591;28;20360;-80
2021/06/01 07:38:02;;;;;;;10.15;5.53;;;435.30;2099.20;;;;;;5017278;28;20022;-87
2021/06/01 07:40:28;;;;;;;8.07;5.55;;;435.30;2099.20;;;;;;5017219;28;20021;-79
2021/06/01 07:42:56;;;;;;;9.50;5.22;;;435.50;2124.80;;;;;;5043271;28;20548;-80
2021/06/01 07:45:23;;;;;;;8.98;5.40;;;435.60;2048.00;;;;;;5017293;28;20475;-82
2021/06/01 07:47:49;;;;;;;12.93;6.10;;;435.80;2073.60;;;;;;5017726;28;20022;-86
2021/06/01 07:50:15;;;;;;;7.50;5.25;;;435.90;2073.60;;;;;;5017368;28;20446;-77
2021/06/01 07:52:41;;;;;;;7.43;5.28;;;460.80;2048.00;;;;;;5017684;28;20021;-86
2021/06/01 07:55:07;;;;;;;9.90;5.70;;;460.80;1996.80;;;;;;5017347;28;20471;-78
2021/06/01 07:57:33;;;;;;;13.43;5.65;;;460.80;2099.20;;;;;;5017027;28;20045;-80
2021/06/01 07:59:59;;;;;;;7.53;4.78;;;460.80;2022.40;;;;;;5035116;28;20025;-85
2021/06/01 08:02:24;;;;;;;10.27;5.47;;;436.10;1996.80;;;;;;5035124;28;20038;-80
2021/06/01 08:04:53;;;;;;;9.32;5.40;;;436.10;1996.80;;;;;;5034243;28;20029;-80
2021/06/01 08:07:20;;;;;;;6.60;5.13;;;436.00;1996.80;;;;;;5050398;28;20026;-84
2021/06/01 08:09:46;;;;;;;9.40;5.50;;;435.90;2022.40;;;;;;5035000;28;20045;-81
2021/06/01 08:12:11;;;;;;;8.10;5.45;;;435.80;1996.80;;;;;;5017045;28;20056;-82
2021/06/01 08:14:37;;;;;;;7.85;5.43;;;435.80;2048.00;;;;;;5034948;28;20040;-82
2021/06/01 08:17:04;;;;;;;7.78;5.78;;;435.80;2022.40;;;;;;5016664;28;20595;-81
2021/06/01 08:19:32;;;;;;;10.20;5.35;;;435.80;1996.80;;;;;;5017159;28;20025;-80
2021/06/01 08:24:24;;;;;;;12.98;5.90;;;435.80;1996.80;;;;;;5035072;28;20029;-82
2021/06/01 08:26:50;;;;;;;9.95;5.32;;;435.80;1996.80;;;;;;5034755;28;20061;-80
2021/06/01 08:29:16;;;;;;;10.70;6.10;;;435.90;1971.20;;;;;;5017126;28;20061;-80
2021/06/01 08:31:42;;;;;;;9.90;5.30;;;435.90;1996.80;;;;;;5016495;28;20037;-86
2021/06/01 08:34:09;;;;;;;9.85;4.97;;;435.90;2048.00;;;;;;5017185;28;20029;-82
2021/06/01 08:36:36;;;;;;;14.50;5.07;;;436.00;2022.40;;;;;;5016957;28;20490;-85
2021/06/01 08:39:04;;;;;;;9.88;4.53;;;436.10;1971.20;;;;;;5018987;28;20029;-82
2021/06/01 08:41:31;;;;;;;19.05;5.30;;;436.00;1945.60;;;;;;5017125;28;20075;-83
2021/06/01 08:44:00;;;;;;;8.07;5.22;;;436.10;1945.60;;;;;;5049927;28;20060;-83
2021/06/01 08:46:27;;;;;;;8.30;4.47;;;436.00;1971.20;;;;;;5034980;28;20033;-82
2021/06/01 08:48:53;;;;;;;12.57;5.28;;;435.90;1971.20;;;;;;5015958;28;20026;-79
2021/06/01 08:51:23;;;;;;;13.27;5.07;;;460.80;1996.80;;;;;;5034118;28;20028;-78
2021/06/01 08:53:50;;;;;;;11.93;5.82;;;461.10;2048.00;;;;;;5033810;28;20033;-83
2021/06/01 08:56:17;;;;;;;11.82;5.10;;;461.10;1920.00;;;;;;5015613;28;20059;-81
2021/06/01 08:58:44;;;;;;;12.55;5.25;;;461.20;1996.80;;;;;;5013333;28;20033;-77
2021/06/01 09:01:10;;;;;;;14.82;5.20;;;461.40;1920.00;;;;;;5033219;28;20482;-79
2021/06/01 09:03:47;;;;;;;10.95;5.57;;;461.40;1920.00;;;;;;5033248;28;20036;-79
2021/06/01 09:12:10;;;;;;;8.75;4.03;;;461.40;1945.60;;;;;;4970230;28;20030;-80
2021/06/01 09:22:55;;;;;;;8.43;3.55;;;461.50;1817.60;;;;;;4934349;29;20112;-79
2021/06/01 09:25:39;;;;;;;7.95;4.40;;;461.50;1817.60;;;;;;4933695;29;20425;-79
2021/06/01 09:28:10;;;;;;;6.13;3.53;;;461.70;1843.20;;;;;;4933375;29;20035;-79
2021/06/01 09:30:44;;;;;;;7.35;4.20;;;461.70;1792.00;;;;;;4932531;29;20062;-79
2021/06/01 09:33:31;;;;;;;9.90;3.80;;;486.40;1792.00;;;;;;4931341;29;20059;-80
2021/06/01 09:36:04;;;;;;;8.50;3.75;;;486.50;1792.00;;;;;;4932048;29;20544;-80
2021/06/01 09:38:45;;;;;;;6.32;3.22;;;486.50;1740.80;;;;;;4931420;29;20097;-82
2021/06/01 09:41:27;;;;;;;13.60;4.43;;;486.50;1689.60;;;;;;4931651;29;20047;-79
2021/06/01 09:43:58;;;;;;;8.30;3.05;;;486.50;1689.60;;;;;;4932898;29;20171;-79
2021/06/01 09:46:31;;;;;;;8.73;3.00;;;486.70;1664.00;;;;;;4963307;28;20059;-80
2021/06/01 09:49:17;;;;;;;5.18;3.08;;;487.00;1689.60;;;;;;4982036;28;20165;-79
2021/06/01 09:51:48;;;;;;;10.80;3.75;;;;;;;;;;4971939;28;20419;-80
2021/06/01 09:54:49;;;;;;;7.13;3.53;;;512.30;1612.80;;;;;;5009024;28;20509;-80
2021/06/01 09:57:26;;;;;;;9.23;3.45;;;512.40;1612.80;;;;;;5015365;28;20136;-80
2021/06/01 10:00:21;;;;;;;7.93;3.58;;;512.20;1612.80;;;;;;5032912;28;20044;-81
2021/06/01 10:02:51;;;;;;;5.97;3.70;;;487.30;1587.20;;;;;;5032754;28;20076;-81
2021/06/01 10:05:19;;;;;;;8.18;3.70;;;487.30;1664.00;;;;;;5032918;28;20043;-80
2021/06/01 10:07:47;;;;;;;6.60;3.05;;;512.00;1612.80;;;;;;5015055;28;20040;-80
2021/06/01 10:10:18;;;;;;;5.47;3.45;;;512.30;1587.20;;;;;;5014802;28;20387;-79
2021/06/01 10:12:53;;;;;;;6.25;3.42;;;512.50;1638.40;;;;;;5032938;28;20113;-79
2021/06/01 10:15:22;;;;;;;6.90;3.77;;;512.70;1561.60;;;;;;5014502;28;20120;-80
2021/06/01 10:17:49;;;;;;;7.07;3.78;;;537.60;1587.20;;;;;;5032766;28;20035;-79
2021/06/01 10:20:16;;;;;;;9.18;3.00;;;538.10;1561.60;;;;;;5047685;28;20022;-78
2021/06/01 10:22:42;;;;;;;6.78;3.72;;;537.80;1587.20;;;;;;5047685;28;20468;-78
2021/06/01 10:25:10;;;;;;;5.78;3.28;;;537.90;1536.00;;;;;;5014367;28;20368;-79
2021/06/01 10:27:36;;;;;;;4.18;2.83;;;537.90;1587.20;;;;;;5013811;28;20471;-81
2021/06/01 10:30:03;;;;;;;6.75;3.00;;;537.70;1561.60;;;;;;5038878;28;20184;-81
2021/06/01 10:32:31;;;;;;;6.53;2.92;;;512.80;1536.00;;;;;;5013998;28;20052;-82
2021/06/01 10:34:58;;;;;;;6.45;3.17;;;512.50;1536.00;;;;;;5014291;28;20061;-81
2021/06/01 10:51:58;;;;;;;7.57;3.92;;;512.20;1587.20;;;;;;5033435;28;20395;-79
2021/06/01 10:54:39;;;;;;;5.15;2.63;;;512.40;1484.80;;;;;;5018530;28;20102;-82
2021/06/01 10:57:05;;;;;;;9.15;3.65;;;512.70;1510.40;;;;;;5018729;28;20176;-81
2021/06/01 11:02:18;;;;;;;;;;;537.70;1433.60;;;;;;5036911;28;20033;-82
2021/06/01 11:05:14;;;;;;;9.20;3.53;;;538.00;1408.00;;;;;;5039173;28;19905;-81
2021/06/01 11:07:52;;;;;;;5.40;3.08;;;538.50;1433.60;;;;;;5026289;28;20393;-80
2021/06/01 11:10:54;;;;;;;9.18;3.58;;;563.20;1331.20;;;;;;5024730;28;20045;-82
2021/06/01 11:13:22;;;;;;;7.95;3.58;;;538.50;1408.00;;;;;;5003544;28;20213;-80
2021/06/01 11:15:56;;;;;;;7.88;3.65;;;563.50;1433.60;;;;;;4985180;28;20038;-81
2021/06/01 11:18:33;;;;;;;6.18;3.33;;;563.40;1433.60;;;;;;4988085;28;20025;-83
2021/06/01 11:35:13;;;;;;;12.50;4.57;;;538.30;1459.20;;;;;;4995892;28;20069;-82
2021/06/01 11:37:54;;;;;;;4.85;3.10;;;538.50;1382.40;;;;;;4977204;28;20132;-80
2021/06/01 11:40:26;;;;;;;7.07;3.70;;;563.50;1408.00;;;;;;4975362;28;20039;-82
2021/06/01 11:43:12;;;;;;;6.78;3.40;;;563.70;1331.20;;;;;;4977724;28;20073;-81
2021/06/01 11:45:44;;;;;;;8.00;3.40;;;564.00;1408.00;;;;;;5009885;28;20023;-80
2021/06/01 11:51:23;;;;;;;8.13;3.50;;;564.10;1331.20;;;;;;5034874;28;20018;-82
2021/06/01 11:53:56;;;;;;;19.90;4.18;;;564.00;1280.00;;;;;;5038235;28;20022;-83
2021/06/01 11:57:16;;;;;;;7.75;3.85;;;563.70;1356.80;;;;;;5029075;28;20025;-79
2021/06/01 12:18:49;;;;;;;6.32;3.33;;;564.00;1305.60;;;;;;4974439;28;20042;-81
2021/06/01 12:21:18;;;;;;;7.60;3.20;;;563.70;1331.20;;;;;;4973798;28;20030;-81
2021/06/01 12:23:49;;;;;;;6.40;2.97;;;563.50;1356.80;;;;;;4957856;28;20039;-82
2021/06/01 12:26:32;;;;;;;6.25;3.00;;;563.50;1331.20;;;;;;4974045;28;20035;-81
2021/06/01 12:31:58;;;;;;;5.45;3.20;;;564.00;1305.60;;;;;;4974300;28;20050;-81
2021/06/01 12:42:20;;;;;;;18.70;4.13;;;563.90;1331.20;;;;;;5027798;28;20087;-82
2021/06/01 12:44:47;;;;;;;5.00;3.35;;;564.10;1331.20;;;;;;5016792;28;20071;-82
2021/06/01 13:07:17;;;;;;;5.75;3.00;;;563.30;1280.00;;;;;;5035041;28;20071;-84
2021/06/01 13:39:59;;;;;;;4.18;2.60;;;538.50;1177.60;;;;;;4952600;29;20114;-80
2021/06/01 13:50:55;;;;;;;5.53;2.17;;;563.20;1075.20;;;;;;4996057;28;20041;-81
2021/06/01 13:55:59;;;;;;;5.05;2.22;;;538.40;1100.80;;;;;;5032808;28;20430;-82
2021/06/01 13:58:36;;;;;;;4.22;2.25;;;538.30;1177.60;;;;;;5029951;28;20025;-81
2021/06/01 14:20:50;;;;;;;4.90;2.45;;;538.50;1126.40;;;;;;4991380;28;20049;-80
2021/06/01 16:15:20;;;;;;;6.80;2.10;;;538.20;1049.60;;;;;;4916455;29;20091;-79
2021/06/01 16:42:38;;;;;;;6.78;2.47;;;538.20;1126.40;;;;;;5040133;28;20116;-79
2021/06/01 17:07:00;;;;;;;10.50;2.33;;;537.70;1152.00;;;;;;5033203;28;20107;-78
2021/06/01 17:11:56;;;;;;;6.03;2.75;;;512.90;1126.40;;;;;;5033580;28;20026;-81
2021/06/01 17:14:26;;;;;;;9.27;2.28;;;512.90;1126.40;;;;;;5015983;28;20025;-81
2021/06/01 17:17:11;;;;;;;7.32;2.20;;;512.90;1152.00;;;;;;5016500;28;20037;-80
2021/06/01 17:36:13;;;;;;;5.20;2.33;;;512.30;1228.80;;;;;;4973237;28;20090;-80
2021/06/01 17:38:39;;;;;;;3.75;2.00;;;512.30;1254.40;;;;;;4971977;28;20076;-79
2021/06/01 17:41:10;;;;;;;5.60;2.58;;;512.10;1228.80;;;;;;4969102;28;20066;-80
2021/06/01 17:43:36;;;;;;;11.13;2.60;;;512.00;1254.40;;;;;;4953219;29;20051;-79
2021/06/01 17:46:05;;;;;;;5.85;2.53;;;487.30;1254.40;;;;;;4952656;29;20074;-84
2021/06/01 17:48:55;;;;;;;3.95;2.30;;;487.30;1228.80;;;;;;4952308;28;20035;-81
2021/06/01 17:51:24;;;;;;;5.97;2.40;;;487.30;1228.80;;;;;;4983032;28;20149;-81
2021/06/01 17:53:50;;;;;;;6.40;2.60;;;487.20;1254.40;;;;;;4973477;28;20066;-83
2021/06/01 17:56:24;;;;;;;6.25;2.70;;;487.10;1254.40;;;;;;4961818;28;20101;-80
2021/06/01 17:58:51;;;;;;;6.00;2.38;;;487.10;1254.40;;;;;;4963387;28;20027;-81
2021/06/01 18:01:21;;;;;;;7.28;2.40;;;487.00;1228.80;;;;;;4959630;28;20035;-82
2021/06/01 18:03:51;;;;;;;8.07;2.20;;;487.00;1280.00;;;;;;4947376;28;20071;-81
2021/06/01 18:06:18;;;;;;;5.70;2.72;;;486.90;1280.00;;;;;;5032639;28;20485;-81
2021/06/01 19:25:09;;;;;;;65.35;34.13;;;436.10;1484.80;;;;;;5035925;28;20079;-81
2021/06/01 19:49:58;;;;;;;16.90;8.20;;;435.90;1484.80;;;;;;5034876;28;20051;-82